sensor_id;sensor_type;location;lat;lon;timestamp;temperature;humidity
46231;DHT22;31949;51.404;-0.038;2022-11-15T00:01:47;10.90;99.90
46231;DHT22;31949;51.404;-0.038;2022-11-15T00:04:33;10.90;99.90
46231;DHT22;31949;51.404;-0.038;2022-11-15T00:07:19;10.80;99.90
46231;DHT22;31949;51.404;-0.038;2022-11-15T00:10:25;10.80;99.90
46231;DHT22;31949;51.404;-0.038;2022-11-15T00:13:12;10.70;99.90
46231;DHT22;31949;51.404;-0.038;2022-11-15T00:15:59;10.70;99.90
46231;DHT22;31949;51.404;-0.038;2022-11-15T00:18:45;10.70;99.90
46231;DHT22;31949;51.404;-0.038;2022-11-15T00:21:35;10.70;99.90
46231;DHT22;31949;51.404;-0.038;2022-11-15T00:24:22;10.70;99.90
46231;DHT22;31949;51.404;-0.038;2022-11-15T00:27:08;10.60;99.90
46231;DHT22;31949;51.404;-0.038;2022-11-15T00:29:54;10.60;99.90
46231;DHT22;31949;51.404;-0.038;2022-11-15T00:32:40;10.50;99.90
46231;DHT22;31949;51.404;-0.038;2022-11-15T00:35:26;10.50;99.90
46231;DHT22;31949;51.404;-0.038;2022-11-15T00:38:12;10.50;99.90
46231;DHT22;31949;51.404;-0.038;2022-11-15T00:40:57;10.50;99.90
46231;DHT22;31949;51.404;-0.038;2022-11-15T00:43:43;10.50;99.90
46231;DHT22;31949;51.404;-0.038;2022-11-15T00:46:29;10.40;99.90
46231;DHT22;31949;51.404;-0.038;2022-11-15T00:49:15;10.40;99.90
46231;DHT22;31949;51.404;-0.038;2022-11-15T00:52:00;10.40;99.90
46231;DHT22;31949;51.404;-0.038;2022-11-15T00:54:46;10.40;99.90
46231;DHT22;31949;51.404;-0.038;2022-11-15T00:57:31;10.40;99.90
46231;DHT22;31949;51.404;-0.038;2022-11-15T01:00:17;10.40;99.90
46231;DHT22;31949;51.404;-0.038;2022-11-15T01:03:02;10.30;99.90
46231;DHT22;31949;51.404;-0.038;2022-11-15T01:05:48;10.30;99.90
46231;DHT22;31949;51.404;-0.038;2022-11-15T01:08:34;10.30;99.90
46231;DHT22;31949;51.404;-0.038;2022-11-15T01:11:20;10.30;99.90
46231;DHT22;31949;51.404;-0.038;2022-11-15T01:14:05;10.30;99.90
46231;DHT22;31949;51.404;-0.038;2022-11-15T01:16:51;10.30;99.90
46231;DHT22;31949;51.404;-0.038;2022-11-15T01:19:37;10.30;99.90
46231;DHT22;31949;51.404;-0.038;2022-11-15T01:22:22;10.30;99.90
46231;DHT22;31949;51.404;-0.038;2022-11-15T01:25:08;10.40;99.90
46231;DHT22;31949;51.404;-0.038;2022-11-15T01:27:54;10.40;99.90
46231;DHT22;31949;51.404;-0.038;2022-11-15T01:30:39;10.40;99.90
46231;DHT22;31949;51.404;-0.038;2022-11-15T01:33:25;10.50;99.90
46231;DHT22;31949;51.404;-0.038;2022-11-15T01:36:17;10.50;99.90
46231;DHT22;31949;51.404;-0.038;2022-11-15T01:39:03;10.50;99.90
46231;DHT22;31949;51.404;-0.038;2022-11-15T01:41:49;10.50;99.90
46231;DHT22;31949;51.404;-0.038;2022-11-15T01:44:39;10.50;99.90
46231;DHT22;31949;51.404;-0.038;2022-11-15T01:47:37;10.50;99.90
46231;DHT22;31949;51.404;-0.038;2022-11-15T01:50:28;10.50;99.90
46231;DHT22;31949;51.404;-0.038;2022-11-15T01:53:16;10.50;99.90
46231;DHT22;31949;51.404;-0.038;2022-11-15T01:56:05;10.50;99.90
46231;DHT22;31949;51.404;-0.038;2022-11-15T01:58:52;10.50;99.90
46231;DHT22;31949;51.404;-0.038;2022-11-15T02:01:38;10.40;99.90
46231;DHT22;31949;51.404;-0.038;2022-11-15T02:04:27;10.40;99.90
46231;DHT22;31949;51.404;-0.038;2022-11-15T02:07:16;10.40;99.90
46231;DHT22;31949;51.404;-0.038;2022-11-15T02:10:16;10.40;99.90
46231;DHT22;31949;51.404;-0.038;2022-11-15T02:13:02;10.30;99.90
46231;DHT22;31949;51.404;-0.038;2022-11-15T02:28:55;10.50;99.90
46231;DHT22;31949;51.404;-0.038;2022-11-15T02:32:05;10.40;99.90
46231;DHT22;31949;51.404;-0.038;2022-11-15T02:35:02;10.40;99.90
46231;DHT22;31949;51.404;-0.038;2022-11-15T02:37:56;10.40;99.90
46231;DHT22;31949;51.404;-0.038;2022-11-15T02:40:59;10.30;99.90
46231;DHT22;31949;51.404;-0.038;2022-11-15T02:43:47;10.30;99.90
46231;DHT22;31949;51.404;-0.038;2022-11-15T02:46:52;10.30;99.90
46231;DHT22;31949;51.404;-0.038;2022-11-15T02:50:10;10.20;99.90
46231;DHT22;31949;51.404;-0.038;2022-11-15T02:52:57;10.20;99.90
46231;DHT22;31949;51.404;-0.038;2022-11-15T02:55:53;10.20;99.90
46231;DHT22;31949;51.404;-0.038;2022-11-15T03:08:22;10.10;99.90
46231;DHT22;31949;51.404;-0.038;2022-11-15T03:11:14;10.20;99.90
46231;DHT22;31949;51.404;-0.038;2022-11-15T03:20:06;10.20;99.90
46231;DHT22;31949;51.404;-0.038;2022-11-15T03:22:56;10.20;99.90
46231;DHT22;31949;51.404;-0.038;2022-11-15T03:25:47;10.20;99.90
46231;DHT22;31949;51.404;-0.038;2022-11-15T03:31:37;10.20;99.90
46231;DHT22;31949;51.404;-0.038;2022-11-15T03:37:41;10.30;99.90
46231;DHT22;31949;51.404;-0.038;2022-11-15T03:40:39;10.30;99.90
46231;DHT22;31949;51.404;-0.038;2022-11-15T03:43:41;10.30;99.90
46231;DHT22;31949;51.404;-0.038;2022-11-15T03:46:36;10.40;99.90
46231;DHT22;31949;51.404;-0.038;2022-11-15T03:49:29;10.40;99.90
46231;DHT22;31949;51.404;-0.038;2022-11-15T03:52:18;10.40;99.90
46231;DHT22;31949;51.404;-0.038;2022-11-15T03:55:07;10.40;99.90
46231;DHT22;31949;51.404;-0.038;2022-11-15T03:57:57;10.40;99.90
46231;DHT22;31949;51.404;-0.038;2022-11-15T04:00:44;10.40;99.90
46231;DHT22;31949;51.404;-0.038;2022-11-15T04:03:29;10.40;99.90
46231;DHT22;31949;51.404;-0.038;2022-11-15T04:06:16;10.40;99.90
46231;DHT22;31949;51.404;-0.038;2022-11-15T04:09:02;10.40;99.90
46231;DHT22;31949;51.404;-0.038;2022-11-15T04:11:48;10.50;99.90
46231;DHT22;31949;51.404;-0.038;2022-11-15T04:14:34;10.50;99.90
46231;DHT22;31949;51.404;-0.038;2022-11-15T04:17:20;10.50;99.90
46231;DHT22;31949;51.404;-0.038;2022-11-15T04:20:12;10.50;99.90
46231;DHT22;31949;51.404;-0.038;2022-11-15T04:23:18;10.50;99.90
46231;DHT22;31949;51.404;-0.038;2022-11-15T04:26:23;10.50;99.90
46231;DHT22;31949;51.404;-0.038;2022-11-15T04:29:09;10.50;99.90
46231;DHT22;31949;51.404;-0.038;2022-11-15T04:32:14;10.50;99.90
46231;DHT22;31949;51.404;-0.038;2022-11-15T04:34:59;10.60;99.90
46231;DHT22;31949;51.404;-0.038;2022-11-15T04:37:45;10.60;99.90
46231;DHT22;31949;51.404;-0.038;2022-11-15T04:40:35;10.80;99.90
46231;DHT22;31949;51.404;-0.038;2022-11-15T04:43:20;10.90;99.90
46231;DHT22;31949;51.404;-0.038;2022-11-15T04:46:06;10.90;99.90
46231;DHT22;31949;51.404;-0.038;2022-11-15T04:48:52;11.00;99.90
46231;DHT22;31949;51.404;-0.038;2022-11-15T04:51:43;11.00;99.90
46231;DHT22;31949;51.404;-0.038;2022-11-15T04:54:29;11.00;99.90
46231;DHT22;31949;51.404;-0.038;2022-11-15T04:57:15;11.00;99.90
46231;DHT22;31949;51.404;-0.038;2022-11-15T05:00:05;11.00;99.90
46231;DHT22;31949;51.404;-0.038;2022-11-15T05:02:51;11.10;99.90
46231;DHT22;31949;51.404;-0.038;2022-11-15T05:05:56;11.10;99.90
46231;DHT22;31949;51.404;-0.038;2022-11-15T05:08:42;11.20;99.90
46231;DHT22;31949;51.404;-0.038;2022-11-15T05:11:27;11.20;99.90
46231;DHT22;31949;51.404;-0.038;2022-11-15T05:14:13;11.30;99.90
46231;DHT22;31949;51.404;-0.038;2022-11-15T05:16:59;11.40;99.90
46231;DHT22;31949;51.404;-0.038;2022-11-15T05:19:45;11.40;99.90
46231;DHT22;31949;51.404;-0.038;2022-11-15T05:22:31;11.50;99.90
46231;DHT22;31949;51.404;-0.038;2022-11-15T05:25:16;11.60;99.90
46231;DHT22;31949;51.404;-0.038;2022-11-15T05:28:02;11.50;99.90
46231;DHT22;31949;51.404;-0.038;2022-11-15T05:30:47;11.60;99.90
46231;DHT22;31949;51.404;-0.038;2022-11-15T05:33:35;11.70;99.90
46231;DHT22;31949;51.404;-0.038;2022-11-15T05:39:13;11.80;99.90
46231;DHT22;31949;51.404;-0.038;2022-11-15T05:42:10;11.80;99.90
46231;DHT22;31949;51.404;-0.038;2022-11-15T05:44:57;11.80;99.90
46231;DHT22;31949;51.404;-0.038;2022-11-15T05:47:44;11.80;99.90
46231;DHT22;31949;51.404;-0.038;2022-11-15T05:50:31;11.90;99.90
46231;DHT22;31949;51.404;-0.038;2022-11-15T05:53:19;11.90;99.90
46231;DHT22;31949;51.404;-0.038;2022-11-15T05:56:09;11.90;99.90
46231;DHT22;31949;51.404;-0.038;2022-11-15T05:58:55;11.90;99.90
46231;DHT22;31949;51.404;-0.038;2022-11-15T06:01:44;12.00;99.90
46231;DHT22;31949;51.404;-0.038;2022-11-15T06:04:30;11.90;99.90
46231;DHT22;31949;51.404;-0.038;2022-11-15T06:07:16;11.90;99.90
46231;DHT22;31949;51.404;-0.038;2022-11-15T06:10:02;11.90;99.90
46231;DHT22;31949;51.404;-0.038;2022-11-15T06:12:56;12.00;99.90
46231;DHT22;31949;51.404;-0.038;2022-11-15T06:15:42;12.00;99.90
46231;DHT22;31949;51.404;-0.038;2022-11-15T06:18:27;12.00;99.90
46231;DHT22;31949;51.404;-0.038;2022-11-15T06:21:13;12.00;99.90
46231;DHT22;31949;51.404;-0.038;2022-11-15T06:23:59;12.10;99.90
46231;DHT22;31949;51.404;-0.038;2022-11-15T06:26:45;12.20;99.90
46231;DHT22;31949;51.404;-0.038;2022-11-15T06:29:30;12.20;99.90
46231;DHT22;31949;51.404;-0.038;2022-11-15T06:32:16;12.30;99.90
46231;DHT22;31949;51.404;-0.038;2022-11-15T06:35:01;12.20;99.90
46231;DHT22;31949;51.404;-0.038;2022-11-15T06:37:47;12.30;99.90
46231;DHT22;31949;51.404;-0.038;2022-11-15T06:40:35;12.20;99.90
46231;DHT22;31949;51.404;-0.038;2022-11-15T06:43:20;12.20;99.90
46231;DHT22;31949;51.404;-0.038;2022-11-15T06:46:06;12.10;99.90
46231;DHT22;31949;51.404;-0.038;2022-11-15T06:48:52;12.10;99.90
46231;DHT22;31949;51.404;-0.038;2022-11-15T06:51:38;12.00;99.90
46231;DHT22;31949;51.404;-0.038;2022-11-15T06:54:23;12.00;99.90
46231;DHT22;31949;51.404;-0.038;2022-11-15T06:57:09;12.00;99.90
46231;DHT22;31949;51.404;-0.038;2022-11-15T06:59:55;11.90;99.90
46231;DHT22;31949;51.404;-0.038;2022-11-15T07:02:41;11.90;99.90
46231;DHT22;31949;51.404;-0.038;2022-11-15T07:05:27;11.90;99.90
46231;DHT22;31949;51.404;-0.038;2022-11-15T07:08:13;11.90;99.90
46231;DHT22;31949;51.404;-0.038;2022-11-15T07:11:01;11.90;99.90
46231;DHT22;31949;51.404;-0.038;2022-11-15T07:13:47;11.90;99.90
46231;DHT22;31949;51.404;-0.038;2022-11-15T07:16:32;11.90;99.90
46231;DHT22;31949;51.404;-0.038;2022-11-15T07:19:18;11.90;99.90
46231;DHT22;31949;51.404;-0.038;2022-11-15T07:22:04;11.80;99.90
46231;DHT22;31949;51.404;-0.038;2022-11-15T07:24:50;11.80;99.90
46231;DHT22;31949;51.404;-0.038;2022-11-15T07:27:36;11.80;99.90
46231;DHT22;31949;51.404;-0.038;2022-11-15T07:30:23;11.80;99.90
46231;DHT22;31949;51.404;-0.038;2022-11-15T07:33:08;11.80;99.90
46231;DHT22;31949;51.404;-0.038;2022-11-15T07:35:57;11.80;99.90
46231;DHT22;31949;51.404;-0.038;2022-11-15T07:38:43;11.80;99.90
46231;DHT22;31949;51.404;-0.038;2022-11-15T07:41:29;11.80;99.90
46231;DHT22;31949;51.404;-0.038;2022-11-15T07:44:15;11.80;99.90
46231;DHT22;31949;51.404;-0.038;2022-11-15T07:47:00;11.70;99.90
46231;DHT22;31949;51.404;-0.038;2022-11-15T07:49:46;11.70;99.90
46231;DHT22;31949;51.404;-0.038;2022-11-15T07:52:32;11.70;99.90
46231;DHT22;31949;51.404;-0.038;2022-11-15T07:55:17;11.80;99.90
46231;DHT22;31949;51.404;-0.038;2022-11-15T07:58:10;11.70;99.90
46231;DHT22;31949;51.404;-0.038;2022-11-15T08:00:56;11.70;99.90
46231;DHT22;31949;51.404;-0.038;2022-11-15T08:03:42;11.60;99.90
46231;DHT22;31949;51.404;-0.038;2022-11-15T08:06:27;11.60;99.90
46231;DHT22;31949;51.404;-0.038;2022-11-15T08:09:13;11.70;99.90
46231;DHT22;31949;51.404;-0.038;2022-11-15T08:11:59;11.60;99.90
46231;DHT22;31949;51.404;-0.038;2022-11-15T08:14:44;11.60;99.90
46231;DHT22;31949;51.404;-0.038;2022-11-15T08:17:29;11.70;99.90
46231;DHT22;31949;51.404;-0.038;2022-11-15T08:20:18;11.70;99.90
46231;DHT22;31949;51.404;-0.038;2022-11-15T08:23:06;11.70;99.90
46231;DHT22;31949;51.404;-0.038;2022-11-15T08:25:52;11.70;99.90
46231;DHT22;31949;51.404;-0.038;2022-11-15T08:28:38;11.80;99.90
46231;DHT22;31949;51.404;-0.038;2022-11-15T08:31:24;11.80;99.90
46231;DHT22;31949;51.404;-0.038;2022-11-15T08:34:10;11.80;99.90
46231;DHT22;31949;51.404;-0.038;2022-11-15T08:36:55;11.80;99.90
46231;DHT22;31949;51.404;-0.038;2022-11-15T08:39:41;11.80;99.90
46231;DHT22;31949;51.404;-0.038;2022-11-15T08:42:26;11.80;99.90
46231;DHT22;31949;51.404;-0.038;2022-11-15T08:45:11;11.80;99.90
46231;DHT22;31949;51.404;-0.038;2022-11-15T08:47:57;11.80;99.90
46231;DHT22;31949;51.404;-0.038;2022-11-15T08:50:43;11.80;99.90
46231;DHT22;31949;51.404;-0.038;2022-11-15T08:53:29;11.80;99.90
46231;DHT22;31949;51.404;-0.038;2022-11-15T08:56:15;11.80;99.90
46231;DHT22;31949;51.404;-0.038;2022-11-15T08:59:01;11.90;99.90
46231;DHT22;31949;51.404;-0.038;2022-11-15T09:01:47;12.00;99.90
46231;DHT22;31949;51.404;-0.038;2022-11-15T09:04:33;12.00;99.90
46231;DHT22;31949;51.404;-0.038;2022-11-15T09:07:18;12.00;99.90
46231;DHT22;31949;51.404;-0.038;2022-11-15T09:10:05;12.00;99.90
46231;DHT22;31949;51.404;-0.038;2022-11-15T09:12:50;12.00;99.90
46231;DHT22;31949;51.404;-0.038;2022-11-15T09:15:36;12.10;99.90
46231;DHT22;31949;51.404;-0.038;2022-11-15T09:18:21;12.10;99.90
46231;DHT22;31949;51.404;-0.038;2022-11-15T09:21:08;12.10;99.90
46231;DHT22;31949;51.404;-0.038;2022-11-15T09:23:54;12.10;99.90
46231;DHT22;31949;51.404;-0.038;2022-11-15T09:26:40;12.20;99.90
46231;DHT22;31949;51.404;-0.038;2022-11-15T09:29:26;12.10;99.90
46231;DHT22;31949;51.404;-0.038;2022-11-15T09:32:12;12.20;99.90
46231;DHT22;31949;51.404;-0.038;2022-11-15T09:34:58;12.20;99.90
46231;DHT22;31949;51.404;-0.038;2022-11-15T09:37:44;12.20;99.90
46231;DHT22;31949;51.404;-0.038;2022-11-15T09:40:32;12.20;99.90
46231;DHT22;31949;51.404;-0.038;2022-11-15T09:43:34;12.20;99.90
46231;DHT22;31949;51.404;-0.038;2022-11-15T09:49:10;12.30;99.90
46231;DHT22;31949;51.404;-0.038;2022-11-15T09:52:17;12.30;99.90
46231;DHT22;31949;51.404;-0.038;2022-11-15T09:54:48;12.20;99.90
46231;DHT22;31949;51.404;-0.038;2022-11-15T09:57:33;12.30;99.90
46231;DHT22;31949;51.404;-0.038;2022-11-15T10:05:40;12.40;99.90
46231;DHT22;31949;51.404;-0.038;2022-11-15T10:11:06;12.40;99.90
46231;DHT22;31949;51.404;-0.038;2022-11-15T10:13:58;12.50;99.90
46231;DHT22;31949;51.404;-0.038;2022-11-15T10:24:28;12.50;99.90
46231;DHT22;31949;51.404;-0.038;2022-11-15T10:27:00;12.50;99.90
46231;DHT22;31949;51.404;-0.038;2022-11-15T10:29:27;12.50;99.90
46231;DHT22;31949;51.404;-0.038;2022-11-15T10:31:55;12.60;99.90
46231;DHT22;31949;51.404;-0.038;2022-11-15T10:34:23;12.60;99.90
46231;DHT22;31949;51.404;-0.038;2022-11-15T10:36:59;12.60;99.90
46231;DHT22;31949;51.404;-0.038;2022-11-15T10:39:27;12.60;99.90
46231;DHT22;31949;51.404;-0.038;2022-11-15T10:41:55;12.60;99.90
46231;DHT22;31949;51.404;-0.038;2022-11-15T10:44:24;12.60;99.90
46231;DHT22;31949;51.404;-0.038;2022-11-15T10:54:52;12.70;99.90
46231;DHT22;31949;51.404;-0.038;2022-11-15T10:57:29;12.70;99.90
46231;DHT22;31949;51.404;-0.038;2022-11-15T11:00:00;12.70;99.90
46231;DHT22;31949;51.404;-0.038;2022-11-15T11:02:35;12.70;99.90
46231;DHT22;31949;51.404;-0.038;2022-11-15T11:05:06;12.80;99.90
46231;DHT22;31949;51.404;-0.038;2022-11-15T11:08:20;13.00;99.90
46231;DHT22;31949;51.404;-0.038;2022-11-15T11:10:56;12.90;99.90
46231;DHT22;31949;51.404;-0.038;2022-11-15T11:13:37;12.90;99.90
46231;DHT22;31949;51.404;-0.038;2022-11-15T11:24:56;12.70;99.90
46231;DHT22;31949;51.404;-0.038;2022-11-15T11:27:31;12.80;99.90
46231;DHT22;31949;51.404;-0.038;2022-11-15T11:30:19;12.70;99.90
46231;DHT22;31949;51.404;-0.038;2022-11-15T11:33:05;12.80;99.90
46231;DHT22;31949;51.404;-0.038;2022-11-15T11:36:03;12.80;99.90
46231;DHT22;31949;51.404;-0.038;2022-11-15T11:39:10;12.70;99.90
46231;DHT22;31949;51.404;-0.038;2022-11-15T11:44:34;12.70;99.90
46231;DHT22;31949;51.404;-0.038;2022-11-15T11:47:21;12.70;99.90
46231;DHT22;31949;51.404;-0.038;2022-11-15T11:50:03;12.70;99.90
46231;DHT22;31949;51.404;-0.038;2022-11-15T11:53:11;12.70;99.90
46231;DHT22;31949;51.404;-0.038;2022-11-15T11:55:45;12.70;99.90
46231;DHT22;31949;51.404;-0.038;2022-11-15T11:58:17;12.70;99.90
46231;DHT22;31949;51.404;-0.038;2022-11-15T12:00:51;12.80;99.90
46231;DHT22;31949;51.404;-0.038;2022-11-15T12:03:35;12.80;99.90
46231;DHT22;31949;51.404;-0.038;2022-11-15T12:06:24;12.80;99.90
46231;DHT22;31949;51.404;-0.038;2022-11-15T12:09:26;12.80;99.90
46231;DHT22;31949;51.404;-0.038;2022-11-15T12:11:52;12.80;99.90
46231;DHT22;31949;51.404;-0.038;2022-11-15T12:14:45;12.80;99.90
46231;DHT22;31949;51.404;-0.038;2022-11-15T12:17:17;12.80;99.90
46231;DHT22;31949;51.404;-0.038;2022-11-15T12:19:46;12.80;99.90
46231;DHT22;31949;51.404;-0.038;2022-11-15T12:22:31;12.80;99.90
46231;DHT22;31949;51.404;-0.038;2022-11-15T12:25:05;13.00;99.90
46231;DHT22;31949;51.404;-0.038;2022-11-15T12:27:41;12.90;99.90
46231;DHT22;31949;51.404;-0.038;2022-11-15T12:30:13;12.90;99.90
46231;DHT22;31949;51.404;-0.038;2022-11-15T12:32:53;12.90;99.90
46231;DHT22;31949;51.404;-0.038;2022-11-15T12:35:42;12.90;99.90
46231;DHT22;31949;51.404;-0.038;2022-11-15T12:38:11;13.00;99.90
46231;DHT22;31949;51.404;-0.038;2022-11-15T12:41:32;13.10;99.90
46231;DHT22;31949;51.404;-0.038;2022-11-15T12:43:52;13.10;99.90
46231;DHT22;31949;51.404;-0.038;2022-11-15T12:49:49;13.10;99.90
46231;DHT22;31949;51.404;-0.038;2022-11-15T13:00:00;13.20;99.90
46231;DHT22;31949;51.404;-0.038;2022-11-15T13:02:42;13.30;99.90
46231;DHT22;31949;51.404;-0.038;2022-11-15T13:17:47;13.30;99.90
46231;DHT22;31949;51.404;-0.038;2022-11-15T13:22:58;13.40;99.90
46231;DHT22;31949;51.404;-0.038;2022-11-15T13:30:37;13.60;99.90
46231;DHT22;31949;51.404;-0.038;2022-11-15T13:33:14;13.70;99.90
46231;DHT22;31949;51.404;-0.038;2022-11-15T13:35:47;13.80;99.90
46231;DHT22;31949;51.404;-0.038;2022-11-15T13:38:26;14.10;99.90
46231;DHT22;31949;51.404;-0.038;2022-11-15T13:40:55;14.20;99.90
46231;DHT22;31949;51.404;-0.038;2022-11-15T13:43:29;14.30;99.90
46231;DHT22;31949;51.404;-0.038;2022-11-15T13:46:16;14.30;99.90
46231;DHT22;31949;51.404;-0.038;2022-11-15T13:48:46;14.40;99.90
46231;DHT22;31949;51.404;-0.038;2022-11-15T13:54:09;14.30;99.90
46231;DHT22;31949;51.404;-0.038;2022-11-15T13:56:54;14.30;99.90
46231;DHT22;31949;51.404;-0.038;2022-11-15T13:59:28;14.40;99.90
46231;DHT22;31949;51.404;-0.038;2022-11-15T14:01:58;14.50;99.90
46231;DHT22;31949;51.404;-0.038;2022-11-15T14:04:27;14.50;99.90
46231;DHT22;31949;51.404;-0.038;2022-11-15T14:06:58;14.50;99.90
46231;DHT22;31949;51.404;-0.038;2022-11-15T14:09:39;14.40;99.90
46231;DHT22;31949;51.404;-0.038;2022-11-15T14:12:27;14.40;99.90
46231;DHT22;31949;51.404;-0.038;2022-11-15T14:14:57;14.30;99.90
46231;DHT22;31949;51.404;-0.038;2022-11-15T14:19:57;14.30;99.90
46231;DHT22;31949;51.404;-0.038;2022-11-15T14:22:29;14.30;99.90
46231;DHT22;31949;51.404;-0.038;2022-11-15T14:25:18;14.20;99.90
46231;DHT22;31949;51.404;-0.038;2022-11-15T14:30:34;14.10;99.90
46231;DHT22;31949;51.404;-0.038;2022-11-15T14:33:17;14.10;99.90
46231;DHT22;31949;51.404;-0.038;2022-11-15T14:35:51;14.10;99.90
46231;DHT22;31949;51.404;-0.038;2022-11-15T14:38:18;14.00;99.90
46231;DHT22;31949;51.404;-0.038;2022-11-15T14:40:46;13.90;99.90
46231;DHT22;31949;51.404;-0.038;2022-11-15T14:43:15;13.90;99.90
46231;DHT22;31949;51.404;-0.038;2022-11-15T14:45:42;13.90;99.90
46231;DHT22;31949;51.404;-0.038;2022-11-15T14:48:10;13.90;99.90
46231;DHT22;31949;51.404;-0.038;2022-11-15T14:50:37;13.80;99.90
46231;DHT22;31949;51.404;-0.038;2022-11-15T14:53:05;13.80;99.90
46231;DHT22;31949;51.404;-0.038;2022-11-15T14:55:36;13.70;99.90
46231;DHT22;31949;51.404;-0.038;2022-11-15T14:58:04;13.70;99.90
46231;DHT22;31949;51.404;-0.038;2022-11-15T15:00:32;13.70;99.90
46231;DHT22;31949;51.404;-0.038;2022-11-15T15:03:02;13.60;99.90
46231;DHT22;31949;51.404;-0.038;2022-11-15T15:05:42;13.50;99.90
46231;DHT22;31949;51.404;-0.038;2022-11-15T15:08:10;13.50;99.90
46231;DHT22;31949;51.404;-0.038;2022-11-15T15:10:40;13.50;99.90
46231;DHT22;31949;51.404;-0.038;2022-11-15T15:13:19;13.40;99.90
46231;DHT22;31949;51.404;-0.038;2022-11-15T15:15:47;13.40;99.90
46231;DHT22;31949;51.404;-0.038;2022-11-15T15:18:15;13.40;99.90
46231;DHT22;31949;51.404;-0.038;2022-11-15T15:20:44;13.30;99.90
46231;DHT22;31949;51.404;-0.038;2022-11-15T15:23:17;13.30;99.90
46231;DHT22;31949;51.404;-0.038;2022-11-15T15:25:46;13.30;99.90
46231;DHT22;31949;51.404;-0.038;2022-11-15T15:28:14;13.30;99.90
46231;DHT22;31949;51.404;-0.038;2022-11-15T15:30:42;13.30;99.90
46231;DHT22;31949;51.404;-0.038;2022-11-15T15:33:09;13.30;99.90
46231;DHT22;31949;51.404;-0.038;2022-11-15T15:35:36;13.20;99.90
46231;DHT22;31949;51.404;-0.038;2022-11-15T15:38:04;13.20;99.90
46231;DHT22;31949;51.404;-0.038;2022-11-15T15:40:32;13.20;99.90
46231;DHT22;31949;51.404;-0.038;2022-11-15T15:43:00;13.20;99.90
46231;DHT22;31949;51.404;-0.038;2022-11-15T15:45:27;13.20;99.90
46231;DHT22;31949;51.404;-0.038;2022-11-15T15:47:56;13.10;99.90
46231;DHT22;31949;51.404;-0.038;2022-11-15T15:50:27;13.10;99.90
46231;DHT22;31949;51.404;-0.038;2022-11-15T15:52:57;13.10;99.90
46231;DHT22;31949;51.404;-0.038;2022-11-15T15:55:28;13.10;99.90
46231;DHT22;31949;51.404;-0.038;2022-11-15T15:57:56;13.10;99.90
46231;DHT22;31949;51.404;-0.038;2022-11-15T16:00:25;13.10;99.90
46231;DHT22;31949;51.404;-0.038;2022-11-15T16:02:53;13.00;99.90
46231;DHT22;31949;51.404;-0.038;2022-11-15T16:05:21;13.00;99.90
46231;DHT22;31949;51.404;-0.038;2022-11-15T16:07:49;12.90;99.90
46231;DHT22;31949;51.404;-0.038;2022-11-15T16:12:47;12.90;99.90
46231;DHT22;31949;51.404;-0.038;2022-11-15T16:15:14;12.90;99.90
46231;DHT22;31949;51.404;-0.038;2022-11-15T16:17:58;12.80;99.90
46231;DHT22;31949;51.404;-0.038;2022-11-15T16:20:29;12.90;99.90
46231;DHT22;31949;51.404;-0.038;2022-11-15T16:22:57;12.80;99.90
46231;DHT22;31949;51.404;-0.038;2022-11-15T16:25:38;12.90;99.90
46231;DHT22;31949;51.404;-0.038;2022-11-15T16:28:12;12.80;99.90
46231;DHT22;31949;51.404;-0.038;2022-11-15T16:30:41;12.80;99.90
46231;DHT22;31949;51.404;-0.038;2022-11-15T16:33:08;12.80;99.90
46231;DHT22;31949;51.404;-0.038;2022-11-15T16:35:35;12.80;99.90
46231;DHT22;31949;51.404;-0.038;2022-11-15T16:38:03;12.70;99.90
46231;DHT22;31949;51.404;-0.038;2022-11-15T16:40:32;12.80;99.90
46231;DHT22;31949;51.404;-0.038;2022-11-15T16:43:00;12.70;99.90
46231;DHT22;31949;51.404;-0.038;2022-11-15T16:45:29;12.70;99.90
46231;DHT22;31949;51.404;-0.038;2022-11-15T16:47:57;12.60;99.90
46231;DHT22;31949;51.404;-0.038;2022-11-15T16:50:29;12.60;99.90
46231;DHT22;31949;51.404;-0.038;2022-11-15T16:52:58;12.60;99.90
46231;DHT22;31949;51.404;-0.038;2022-11-15T16:55:27;12.60;99.90
46231;DHT22;31949;51.404;-0.038;2022-11-15T16:57:55;12.60;99.90
46231;DHT22;31949;51.404;-0.038;2022-11-15T17:00:25;12.50;99.90
46231;DHT22;31949;51.404;-0.038;2022-11-15T17:02:53;12.50;99.90
46231;DHT22;31949;51.404;-0.038;2022-11-15T17:05:23;12.40;99.90
46231;DHT22;31949;51.404;-0.038;2022-11-15T17:07:51;12.40;99.90
46231;DHT22;31949;51.404;-0.038;2022-11-15T17:10:21;12.30;99.90
46231;DHT22;31949;51.404;-0.038;2022-11-15T17:12:49;12.40;99.90
46231;DHT22;31949;51.404;-0.038;2022-11-15T17:15:17;12.30;99.90
46231;DHT22;31949;51.404;-0.038;2022-11-15T17:17:50;12.30;99.90
46231;DHT22;31949;51.404;-0.038;2022-11-15T17:20:22;12.30;99.90
46231;DHT22;31949;51.404;-0.038;2022-11-15T17:22:52;12.30;99.90
46231;DHT22;31949;51.404;-0.038;2022-11-15T17:25:22;12.30;99.90
46231;DHT22;31949;51.404;-0.038;2022-11-15T17:27:50;12.30;99.90
46231;DHT22;31949;51.404;-0.038;2022-11-15T17:30:17;12.30;99.90
46231;DHT22;31949;51.404;-0.038;2022-11-15T17:32:45;12.30;99.90
46231;DHT22;31949;51.404;-0.038;2022-11-15T17:35:13;12.40;99.90
46231;DHT22;31949;51.404;-0.038;2022-11-15T17:37:42;12.40;99.90
46231;DHT22;31949;51.404;-0.038;2022-11-15T17:40:09;12.40;99.90
46231;DHT22;31949;51.404;-0.038;2022-11-15T17:42:40;12.30;99.90
46231;DHT22;31949;51.404;-0.038;2022-11-15T17:45:09;12.30;99.90
46231;DHT22;31949;51.404;-0.038;2022-11-15T17:47:37;12.30;99.90
46231;DHT22;31949;51.404;-0.038;2022-11-15T17:50:04;12.30;99.90
46231;DHT22;31949;51.404;-0.038;2022-11-15T17:52:31;12.30;99.90
46231;DHT22;31949;51.404;-0.038;2022-11-15T17:54:59;12.30;99.90
46231;DHT22;31949;51.404;-0.038;2022-11-15T17:57:26;12.30;99.90
46231;DHT22;31949;51.404;-0.038;2022-11-15T17:59:53;12.20;99.90
46231;DHT22;31949;51.404;-0.038;2022-11-15T18:02:20;12.10;99.90
46231;DHT22;31949;51.404;-0.038;2022-11-15T18:04:48;12.10;99.90
46231;DHT22;31949;51.404;-0.038;2022-11-15T18:07:15;12.00;99.90
46231;DHT22;31949;51.404;-0.038;2022-11-15T18:09:42;12.00;99.90
46231;DHT22;31949;51.404;-0.038;2022-11-15T18:12:11;12.00;99.90
46231;DHT22;31949;51.404;-0.038;2022-11-15T18:14:39;12.10;99.90
46231;DHT22;31949;51.404;-0.038;2022-11-15T18:17:09;12.10;99.90
46231;DHT22;31949;51.404;-0.038;2022-11-15T18:19:40;12.10;99.90
46231;DHT22;31949;51.404;-0.038;2022-11-15T18:22:09;12.00;99.90
46231;DHT22;31949;51.404;-0.038;2022-11-15T18:24:37;12.00;99.90
46231;DHT22;31949;51.404;-0.038;2022-11-15T18:27:06;12.00;99.90
46231;DHT22;31949;51.404;-0.038;2022-11-15T18:29:34;12.00;99.90
46231;DHT22;31949;51.404;-0.038;2022-11-15T18:32:04;12.00;99.90
46231;DHT22;31949;51.404;-0.038;2022-11-15T18:34:38;11.90;99.90
46231;DHT22;31949;51.404;-0.038;2022-11-15T18:37:05;11.80;99.90
46231;DHT22;31949;51.404;-0.038;2022-11-15T18:39:33;11.80;99.90